Time;durP1;ratioP1;P1;durP2;ratioP2;P2;SDS_P1;SDS_P2;PMS_P1;PMS_P2;Temp;Humidity;BMP_temperature;BMP_pressure;BME280_temperature;BME280_humidity;BME280_pressure;Samples;Min_cycle;Max_cycle;Signal;HPM_P1;HPM_P2
2021/06/29 00:01:59;;;;;;;9.48;6.50;;;;;;;21.70;71.33;98938.25;5037826;28;20645;-81
2021/06/29 00:04:26;;;;;;;7.35;6.70;;;;;;;21.62;71.50;98931.63;5019826;28;20253;-84
2021/06/29 00:06:53;;;;;;;7.10;6.50;;;;;;;21.59;71.62;98932.25;5037358;28;20229;-81
2021/06/29 00:09:20;;;;;;;8.60;6.82;;;;;;;21.56;71.45;98913.75;5053836;28;20234;-86
2021/06/29 00:11:47;;;;;;;8.13;6.70;;;;;;;21.51;71.56;98913.88;5053580;28;20302;-86
2021/06/29 00:14:13;;;;;;;7.13;6.43;;;;;;;21.55;71.57;98914.91;5017365;28;20244;-84
2021/06/29 00:16:40;;;;;;;7.33;6.77;;;;;;;21.51;72.13;98919.31;5050505;28;20225;-83
2021/06/29 00:19:07;;;;;;;8.40;7.30;;;;;;;21.41;72.35;98920.41;5045016;28;20231;-81
2021/06/29 00:21:34;;;;;;;7.60;6.90;;;;;;;21.32;72.58;98916.75;5016998;28;20245;-83
2021/06/29 00:24:01;;;;;;;8.30;7.43;;;;;;;21.27;73.03;98927.00;5033764;28;20226;-81
2021/06/29 00:26:27;;;;;;;7.60;6.90;;;;;;;21.25;73.22;98934.66;5040879;28;20227;-84
2021/06/29 00:28:54;;;;;;;7.60;6.90;;;;;;;21.14;73.50;98920.44;5053273;28;20310;-82
2021/06/29 00:31:21;;;;;;;8.20;6.77;;;;;;;21.16;73.71;98926.41;5037297;28;20321;-84
2021/06/29 00:33:49;;;;;;;10.07;7.00;;;;;;;21.09;73.52;98906.91;5037280;28;20226;-83
2021/06/29 00:36:17;;;;;;;7.67;7.00;;;;;;;21.12;73.89;98916.38;5036955;28;20278;-81
2021/06/29 00:38:44;;;;;;;8.00;7.30;;;;;;;21.14;73.86;98915.00;5053001;28;20698;-82
2021/06/29 00:41:11;;;;;;;7.73;7.23;;;;;;;21.06;73.90;98907.50;5053858;28;20320;-82
2021/06/29 00:43:38;;;;;;;8.00;7.30;;;;;;;21.09;73.96;98907.72;5037193;28;20245;-85
2021/06/29 00:46:05;;;;;;;8.00;7.37;;;;;;;20.98;74.63;98900.06;5033685;28;20593;-82
2021/06/29 00:48:31;;;;;;;8.20;7.00;;;;;;;20.86;74.91;98889.69;5046131;28;20341;-84
2021/06/29 00:50:59;;;;;;;8.17;7.37;;;;;;;20.92;74.85;98891.19;5041202;28;20584;-83
2021/06/29 00:53:26;;;;;;;7.73;7.13;;;;;;;20.89;75.24;98894.53;5057487;28;20717;-83
2021/06/29 00:55:53;;;;;;;8.87;7.33;;;;;;;20.89;75.17;98891.81;5057913;28;20239;-84
2021/06/29 00:58:19;;;;;;;7.77;7.20;;;;;;;20.83;75.17;98879.41;5023695;28;20218;-82
2021/06/29 01:00:46;;;;;;;8.10;7.40;;;;;;;20.79;75.35;98886.59;5057543;28;20241;-84
2021/06/29 01:03:13;;;;;;;8.10;7.50;;;;;;;20.78;75.41;98879.53;5057872;28;20229;-91
2021/06/29 01:05:41;;;;;;;9.07;8.10;;;;;;;20.77;75.39;98883.34;5041560;28;20238;-89
2021/06/29 01:08:08;;;;;;;8.67;7.93;;;;;;;20.84;75.39;98877.50;5056954;28;20314;-83
2021/06/29 01:10:35;;;;;;;8.57;7.87;;;;;;;20.79;75.33;98878.41;5057338;28;20223;-85
2021/06/29 01:13:02;;;;;;;8.60;7.73;;;;;;;20.69;75.45;98873.19;5058575;28;20225;-85
2021/06/29 01:15:29;;;;;;;8.67;7.97;;;;;;;20.74;75.50;98878.53;5057169;28;20231;-87
2021/06/29 01:17:57;;;;;;;8.00;7.40;;;;;;;20.68;75.72;98871.56;5041286;28;20529;-87
2021/06/29 01:20:31;;;;;;;8.73;7.93;;;;;;;20.67;76.00;98881.63;5037236;28;20235;-81
2021/06/29 01:23:10;;;;;;;8.43;7.80;;;;;;;20.63;75.90;98891.53;5031860;28;20328;-82
2021/06/29 01:25:39;;;;;;;8.57;7.77;;;;;;;20.54;76.13;98887.91;5038103;28;20218;-87
2021/06/29 01:28:31;;;;;;;9.23;8.27;;;;;;;20.58;76.55;98897.06;5020784;28;20260;-86
2021/06/29 01:31:05;;;;;;;9.07;8.17;;;;;;;20.52;76.29;98913.81;5023807;28;20230;-85
2021/06/29 01:33:32;;;;;;;8.50;7.80;;;;;;;20.42;76.69;98900.41;5037708;28;20572;-81
2021/06/29 01:36:00;;;;;;;9.43;8.30;;;;;;;20.43;77.13;98915.63;5037641;28;20637;-85
2021/06/29 01:38:27;;;;;;;8.80;8.10;;;;;;;20.31;76.88;98905.22;5023317;28;20226;-89
2021/06/29 01:40:54;;;;;;;8.90;8.17;;;;;;;20.22;77.29;98901.53;5040588;28;20530;-80
2021/06/29 01:43:27;;;;;;;9.10;8.23;;;;;;;20.22;77.49;98905.06;5040653;28;20226;-81
2021/06/29 01:45:55;;;;;;;8.40;7.60;;;;;;;20.23;77.64;98903.16;5057419;28;20252;-87
2021/06/29 01:48:24;;;;;;;8.97;8.27;;;;;;;20.25;77.34;98903.66;5040241;28;20300;-88
2021/06/29 01:50:55;;;;;;;9.20;8.60;;;;;;;20.26;77.47;98905.28;5057213;28;20577;-89
2021/06/29 01:53:24;;;;;;;8.97;8.07;;;;;;;20.19;77.68;98897.53;5057030;28;20228;-83
2021/06/29 01:55:51;;;;;;;9.10;8.30;;;;;;;20.21;77.63;98902.66;5057343;28;20596;-89
2021/06/29 01:58:26;;;;;;;9.10;8.40;;;;;;;20.11;78.01;98895.47;5055706;28;20225;-88
2021/06/29 02:00:54;;;;;;;8.93;8.17;;;;;;;20.13;77.82;98896.00;5058187;28;20229;-88
2021/06/29 02:03:21;;;;;;;9.27;8.57;;;;;;;20.08;77.82;98884.41;5023766;28;20258;-83
2021/06/29 02:05:48;;;;;;;9.50;8.77;;;;;;;20.10;77.89;98893.88;5056886;28;20316;-83
2021/06/29 02:08:15;;;;;;;8.53;7.87;;;;;;;20.04;77.88;98877.94;5039697;28;20259;-83
2021/06/29 02:10:42;;;;;;;9.07;8.27;;;;;;;20.01;78.04;98878.56;5035645;28;20614;-83
2021/06/29 02:13:08;;;;;;;8.47;7.83;;;;;;;20.00;78.02;98879.66;5044639;28;20314;-90
2021/06/29 02:15:36;;;;;;;9.30;8.40;;;;;;;19.96;78.43;98881.38;5056579;28;20236;-82
2021/06/29 02:18:04;;;;;;;9.30;8.57;;;;;;;19.93;78.14;98884.66;5056712;28;20234;-90
2021/06/29 02:20:30;;;;;;;8.53;7.93;;;;;;;19.90;78.30;98877.13;5056430;28;20856;-83
2021/06/29 02:22:57;;;;;;;9.43;8.57;;;;;;;19.88;78.40;98893.72;5056681;28;20606;-81
2021/06/29 02:25:24;;;;;;;9.23;8.23;;;;;;;19.86;78.55;98890.50;5056438;28;20285;-81
2021/06/29 02:27:51;;;;;;;9.00;8.23;;;;;;;19.87;78.42;98894.03;5039918;28;20587;-86
2021/06/29 02:30:18;;;;;;;9.10;8.40;;;;;;;19.81;78.97;98896.03;5055956;28;20215;-85
2021/06/29 02:32:45;;;;;;;9.13;8.37;;;;;;;19.67;78.90;98865.28;5056509;28;20224;-90
2021/06/29 02:35:12;;;;;;;9.83;9.03;;;;;;;19.73;79.34;98883.13;5056187;28;20261;-82
2021/06/29 02:37:39;;;;;;;9.60;8.80;;;;;;;19.67;79.18;98871.53;5056341;28;20319;-81
2021/06/29 02:40:07;;;;;;;9.70;8.87;;;;;;;19.71;79.44;98871.72;5026241;28;20228;-83
2021/06/29 02:42:33;;;;;;;9.80;8.90;;;;;;;19.64;79.45;98866.66;5027981;28;20312;-83
2021/06/29 02:45:07;;;;;;;10.20;8.93;;;;;;;19.65;78.80;98867.47;5055779;28;20248;-83
2021/06/29 02:47:36;;;;;;;9.47;8.77;;;;;;;19.57;79.25;98863.53;5040470;28;20616;-83
2021/06/29 02:50:05;;;;;;;9.20;8.50;;;;;;;19.54;79.33;98866.03;5034327;28;20222;-87
2021/06/29 02:52:32;;;;;;;9.73;8.83;;;;;;;19.55;79.97;98873.09;5019566;28;20228;-86
2021/06/29 02:55:00;;;;;;;9.43;8.73;;;;;;;19.46;79.95;98858.53;5019193;28;20237;-83
2021/06/29 02:57:27;;;;;;;9.00;8.30;;;;;;;19.48;80.34;98857.16;5012143;28;20295;-85
2021/06/29 02:59:54;;;;;;;9.67;8.87;;;;;;;19.51;80.19;98856.56;5038302;28;20295;-83
2021/06/29 03:02:21;;;;;;;9.67;8.87;;;;;;;19.45;80.38;98849.63;5022181;28;20238;-87
2021/06/29 03:04:48;;;;;;;10.87;8.90;;;;;;;19.47;80.25;98852.00;5055359;28;20269;-85
2021/06/29 03:07:14;;;;;;;10.20;8.73;;;;;;;19.45;79.97;98840.66;5054599;28;20692;-87
2021/06/29 03:09:41;;;;;;;9.63;8.93;;;;;;;19.51;80.15;98842.97;5017416;28;20272;-84
2021/06/29 03:12:10;;;;;;;9.67;8.93;;;;;;;19.53;79.77;98843.50;5034957;28;20310;-84
2021/06/29 03:14:38;;;;;;;9.50;8.77;;;;;;;19.58;79.66;98848.03;5035388;28;20259;-83
2021/06/29 03:17:08;;;;;;;9.70;8.90;;;;;;;19.59;79.35;98847.75;5035309;28;20307;-85
2021/06/29 03:19:36;;;;;;;9.57;8.87;;;;;;;19.61;79.13;98842.00;5045049;28;20319;-85
2021/06/29 03:22:04;;;;;;;9.77;9.07;;;;;;;19.64;78.87;98855.78;5038239;28;20716;-81
2021/06/29 03:24:31;;;;;;;8.97;8.37;;;;;;;19.63;79.16;98853.38;5055016;28;20248;-86
2021/06/29 03:26:58;;;;;;;9.60;8.80;;;;;;;19.66;79.08;98848.16;5038339;28;20351;-86
2021/06/29 03:29:25;;;;;;;9.73;8.93;;;;;;;19.71;78.96;98860.84;5054605;28;20281;-87
2021/06/29 03:31:51;;;;;;;10.10;9.30;;;;;;;19.66;78.82;98844.63;5054886;28;20312;-82
2021/06/29 03:34:23;;;;;;;10.07;9.20;;;;;;;19.73;78.67;98854.03;5037557;28;20228;-83
2021/06/29 03:36:50;;;;;;;9.37;8.63;;;;;;;19.68;78.50;98850.59;5038060;28;20229;-83
2021/06/29 03:39:18;;;;;;;10.73;9.73;;;;;;;19.79;78.55;98868.31;5054668;28;20272;-83
2021/06/29 03:41:49;;;;;;;9.37;8.67;;;;;;;19.76;78.22;98858.88;5038970;28;20532;-84
2021/06/29 03:44:16;;;;;;;9.60;8.80;;;;;;;19.82;78.27;98875.09;5037290;28;20972;-85
2021/06/29 03:46:43;;;;;;;9.47;8.67;;;;;;;19.74;78.56;98863.78;5037868;28;20219;-81
2021/06/29 03:49:10;;;;;;;9.47;8.60;;;;;;;19.79;78.28;98871.03;5034268;28;20315;-84
2021/06/29 03:51:37;;;;;;;9.97;8.97;;;;;;;19.92;77.78;98878.44;5034619;28;20228;-85
2021/06/29 03:54:06;;;;;;;9.77;8.97;;;;;;;20.00;77.80;98877.75;5017847;28;20253;-87
2021/06/29 03:56:33;;;;;;;9.93;9.07;;;;;;;20.05;76.87;98874.13;5038061;28;20223;-82
2021/06/29 03:59:02;;;;;;;10.13;9.33;;;;;;;20.19;76.78;98869.53;5037662;28;20312;-81
2021/06/29 04:01:29;;;;;;;10.10;9.30;;;;;;;20.37;76.34;98873.28;5037884;28;20230;-87
2021/06/29 04:03:57;;;;;;;10.20;9.40;;;;;;;20.68;75.62;98874.28;5037160;28;20228;-86
2021/06/29 04:06:28;;;;;;;10.00;9.20;;;;;;;21.72;71.36;98889.69;5053933;28;20226;-81
2021/06/29 04:08:56;;;;;;;9.73;8.93;;;;;;;22.43;68.93;98894.13;5037477;28;20232;-81
2021/06/29 04:11:23;;;;;;;9.93;9.03;;;;;;;22.72;66.83;98872.56;5037525;28;20249;-86
2021/06/29 04:13:51;;;;;;;8.90;8.10;;;;;;;22.65;67.50;98890.50;5050503;28;20263;-86
2021/06/29 04:16:18;;;;;;;9.43;8.60;;;;;;;23.08;66.16;98890.66;5037618;28;20251;-85
2021/06/29 04:18:45;;;;;;;8.67;7.87;;;;;;;23.42;64.65;98890.69;5054131;28;20294;-84
2021/06/29 04:21:13;;;;;;;9.40;8.60;;;;;;;23.77;64.13;98885.22;5019019;28;20260;-83
2021/06/29 04:23:42;;;;;;;10.13;9.13;;;;;;;23.96;62.79;98877.44;5037697;28;20714;-86
2021/06/29 04:26:09;;;;;;;9.07;8.30;;;;;;;24.15;62.25;98880.63;5037548;28;20543;-85
2021/06/29 04:28:36;;;;;;;9.50;8.38;;;;;;;24.21;61.30;98875.81;5037874;28;20223;-84
2021/06/29 04:31:03;;;;;;;9.60;8.65;;;;;;;24.52;61.04;98896.28;5037165;28;20233;-85
2021/06/29 04:33:30;;;;;;;8.90;8.20;;;;;;;25.20;58.67;98975.75;5051312;28;20307;-84
2021/06/29 04:35:57;;;;;;;9.20;8.48;;;;;;;25.99;56.09;98981.16;5018309;28;20234;-82
2021/06/29 04:38:23;;;;;;;8.43;7.68;;;;;;;26.79;53.89;99009.13;5017286;28;20310;-84
2021/06/29 04:40:50;;;;;;;8.88;8.05;;;;;;;27.03;52.66;98951.44;5017606;28;20276;-84
2021/06/29 04:43:17;;;;;;;8.70;7.97;;;;;;;26.34;52.99;98926.75;5035399;28;20724;-86
2021/06/29 04:45:44;;;;;;;9.35;8.55;;;;;;;25.98;53.81;98926.63;5037122;28;20222;-85
2021/06/29 04:48:10;;;;;;;9.32;8.52;;;;;;;25.41;55.23;98922.56;5036776;28;20629;-83
2021/06/29 04:50:39;;;;;;;9.20;8.30;;;;;;;25.21;56.22;98928.00;5037395;28;20229;-85
2021/06/29 04:53:06;;;;;;;11.95;8.68;;;;;;;25.32;56.15;98932.78;5036506;28;20633;-86
2021/06/29 04:55:33;;;;;;;12.23;9.00;;;;;;;25.22;56.40;98919.47;5053955;28;20713;-83
2021/06/29 04:58:00;;;;;;;12.15;8.50;;;;;;;25.12;57.95;98919.84;5054074;28;20252;-81
2021/06/29 05:00:27;;;;;;;10.00;9.10;;;;;;;25.22;58.10;98918.66;5019639;28;20295;-83
2021/06/29 05:02:54;;;;;;;12.65;9.13;;;;;;;25.26;58.22;98925.88;5037160;28;20304;-83
2021/06/29 05:05:23;;;;;;;11.55;10.55;;;;;;;25.11;59.39;98931.94;5053393;28;20238;-82
2021/06/29 05:07:50;;;;;;;10.80;9.85;;;;;;;25.00;59.10;98925.25;5037137;28;20668;-82
2021/06/29 05:10:16;;;;;;;10.88;9.77;;;;;;;25.15;58.97;98941.09;5034998;28;20628;-80
2021/06/29 05:12:48;;;;;;;11.15;9.95;;;;;;;25.22;58.69;98938.66;5019247;28;20262;-83
2021/06/29 05:15:15;;;;;;;13.15;10.45;;;;;;;25.29;59.06;98943.63;5036693;28;20234;-85
2021/06/29 05:17:42;;;;;;;15.05;10.48;;;;;;;25.30;58.90;98937.78;5052953;28;20229;-85
2021/06/29 05:20:10;;;;;;;10.52;9.60;;;;;;;25.34;58.65;98944.22;5052882;28;20245;-84
2021/06/29 05:22:37;;;;;;;10.90;9.25;;;;;;;25.51;58.23;98956.22;5052578;28;20225;-80
2021/06/29 05:25:04;;;;;;;11.63;8.95;;;;;;;25.68;58.03;98967.06;5036388;28;20312;-81
2021/06/29 05:27:31;;;;;;;9.50;8.32;;;;;;;25.78;58.06;98967.47;5036567;28;20275;-82
2021/06/29 05:29:58;;;;;;;9.55;8.75;;;;;;;26.08;56.98;98959.91;5052561;28;20233;-85
2021/06/29 05:32:25;;;;;;;9.27;8.38;;;;;;;26.17;56.59;98973.59;5054466;28;20242;-85
2021/06/29 05:34:52;;;;;;;8.50;7.90;;;;;;;26.29;55.26;98968.97;5056625;28;20253;-84
2021/06/29 05:37:19;;;;;;;9.85;7.88;;;;;;;26.58;55.01;98975.44;5057436;28;20244;-85
2021/06/29 05:39:46;;;;;;;8.45;7.78;;;;;;;26.42;54.50;98968.97;5056311;28;20631;-85
2021/06/29 05:42:13;;;;;;;8.82;7.95;;;;;;;26.14;55.64;98969.56;5039514;28;20238;-80
2021/06/29 05:44:39;;;;;;;8.90;8.05;;;;;;;26.39;55.12;98973.22;5022123;28;20644;-79
2021/06/29 05:47:09;;;;;;;11.07;7.47;;;;;;;26.68;54.43;98984.03;5064625;28;20278;-83
2021/06/29 05:49:36;;;;;;;8.70;7.90;;;;;;;26.68;53.95;98988.75;5030388;28;20273;-85
2021/06/29 05:52:03;;;;;;;10.25;7.50;;;;;;;26.55;54.10;98976.91;5049252;28;20270;-82
2021/06/29 05:54:30;;;;;;;14.63;8.38;;;;;;;26.56;54.86;98975.75;5038811;28;20533;-81
2021/06/29 05:56:57;;;;;;;13.52;8.35;;;;;;;26.66;54.75;98983.56;5055377;28;20324;-80
2021/06/29 05:59:24;;;;;;;11.68;7.88;;;;;;;26.62;54.32;98982.66;5057491;28;20236;-85
2021/06/29 06:01:52;;;;;;;9.25;7.80;;;;;;;26.92;53.23;98988.78;5039058;28;20297;-81
2021/06/29 06:04:19;;;;;;;8.50;7.70;;;;;;;27.36;52.16;98991.75;5039449;28;20634;-84
2021/06/29 06:06:46;;;;;;;8.13;7.35;;;;;;;27.63;51.19;98979.22;5039348;28;20256;-85
2021/06/29 06:09:13;;;;;;;8.85;7.20;;;;;;;27.59;51.10;98995.63;5039798;28;20534;-83
2021/06/29 06:11:40;;;;;;;7.78;7.05;;;;;;;27.99;50.06;98990.16;5056233;28;20245;-83
2021/06/29 06:14:07;;;;;;;8.45;6.80;;;;;;;28.04;49.77;98989.91;5056625;28;20228;-81
2021/06/29 06:16:33;;;;;;;7.00;6.50;;;;;;;28.25;48.74;98986.97;5037607;28;20233;-82
2021/06/29 06:19:00;;;;;;;7.03;6.45;;;;;;;28.28;48.55;98991.75;5054395;28;20268;-84
2021/06/29 06:21:27;;;;;;;6.95;6.32;;;;;;;28.52;48.19;98977.06;5033933;28;20214;-81
2021/06/29 06:23:53;;;;;;;6.63;6.18;;;;;;;28.63;47.60;98991.91;5035335;28;20215;-81
2021/06/29 06:26:20;;;;;;;7.50;6.65;;;;;;;28.83;46.69;98993.66;5025730;28;20272;-81
2021/06/29 06:28:47;;;;;;;7.05;6.40;;;;;;;28.58;47.07;98986.66;5040681;28;20283;-82
2021/06/29 06:31:14;;;;;;;7.13;6.47;;;;;;;28.94;46.49;98991.94;5036745;28;20252;-83
2021/06/29 06:33:40;;;;;;;6.50;6.00;;;;;;;29.22;46.24;98986.31;5054433;28;20221;-82
2021/06/29 06:36:11;;;;;;;6.95;6.32;;;;;;;29.34;46.39;98990.97;5018429;28;20229;-82
2021/06/29 06:38:38;;;;;;;6.78;6.28;;;;;;;29.56;46.20;98984.78;5027798;28;20230;-82
2021/06/29 06:41:05;;;;;;;7.88;6.28;;;;;;;29.58;45.16;98985.22;5035368;28;20249;-82
2021/06/29 06:43:32;;;;;;;6.45;5.95;;;;;;;29.58;45.34;98988.75;5031721;28;20252;-82
2021/06/29 06:45:59;;;;;;;6.70;6.15;;;;;;;29.69;44.86;98983.47;5018592;28;20234;-81
2021/06/29 06:48:26;;;;;;;6.63;6.10;;;;;;;29.89;44.24;98985.13;5037311;28;20333;-80
2021/06/29 06:50:53;;;;;;;6.80;5.88;;;;;;;29.57;44.19;98981.66;5037290;28;20234;-82
2021/06/29 06:53:20;;;;;;;6.45;6.00;;;;;;;29.63;44.51;98979.41;5053785;28;20249;-84
2021/06/29 06:55:47;;;;;;;6.22;5.63;;;;;;;29.66;45.21;98979.50;5054128;28;20234;-80
2021/06/29 06:58:13;;;;;;;8.13;5.80;;;;;;;29.96;44.46;98982.50;5052686;28;20320;-80
2021/06/29 07:00:40;;;;;;;6.78;6.05;;;;;;;29.99;43.64;98979.03;5038328;28;20522;-82
2021/06/29 07:03:07;;;;;;;6.63;6.03;;;;;;;30.05;44.03;98982.31;5036982;28;20300;-81
2021/06/29 07:05:34;;;;;;;6.45;5.95;;;;;;;30.12;43.99;98990.72;5051339;28;20230;-83
2021/06/29 07:08:00;;;;;;;6.25;5.75;;;;;;;30.07;43.61;98983.53;5052804;28;20517;-84
2021/06/29 07:10:27;;;;;;;6.20;5.70;;;;;;;30.22;43.46;98990.13;5053816;28;20233;-79
2021/06/29 07:12:54;;;;;;;6.35;5.80;;;;;;;30.32;43.58;98991.50;5051782;28;20240;-82
2021/06/29 07:15:21;;;;;;;6.35;5.85;;;;;;;30.21;43.82;98991.28;5052861;28;20221;-80
2021/06/29 07:17:48;;;;;;;6.07;5.57;;;;;;;30.39;43.08;99000.72;5036918;28;20302;-83
2021/06/29 07:20:15;;;;;;;6.82;6.20;;;;;;;30.40;42.75;98996.78;5021345;28;20519;-83
2021/06/29 07:22:42;;;;;;;6.45;5.95;;;;;;;30.55;42.47;98995.94;5019923;28;20259;-83
2021/06/29 07:25:09;;;;;;;6.70;6.10;;;;;;;30.47;42.23;98999.72;5052152;28;20217;-79
2021/06/29 07:27:36;;;;;;;6.50;5.90;;;;;;;30.51;42.41;99002.56;5019913;28;20308;-80
2021/06/29 07:30:07;;;;;;;5.93;5.38;;;;;;;30.48;42.10;98987.50;5036826;28;20229;-80
2021/06/29 07:32:34;;;;;;;8.90;6.10;;;;;;;30.67;41.92;98994.13;5053914;28;20229;-81
2021/06/29 07:35:01;;;;;;;6.55;6.05;;;;;;;30.69;42.38;98986.28;5053846;28;20317;-84
2021/06/29 07:37:31;;;;;;;6.70;6.10;;;;;;;30.58;42.54;98991.63;5022005;28;20279;-79
2021/06/29 07:39:58;;;;;;;6.65;6.13;;;;;;;30.42;42.93;98977.09;5055018;28;20352;-83
2021/06/29 07:42:25;;;;;;;6.43;5.90;;;;;;;30.45;42.93;98976.34;5037031;28;20564;-83
2021/06/29 07:44:52;;;;;;;8.80;6.38;;;;;;;30.47;41.87;98982.34;5054755;28;20305;-81
2021/06/29 07:47:18;;;;;;;6.30;5.78;;;;;;;30.40;42.18;98976.66;5053390;28;20236;-81
2021/06/29 07:49:45;;;;;;;6.38;5.90;;;;;;;30.52;42.01;98987.56;5053747;28;20700;-83
2021/06/29 07:52:13;;;;;;;6.07;5.68;;;;;;;30.46;41.99;98983.50;5054200;28;20248;-83
2021/06/29 07:54:39;;;;;;;6.57;6.00;;;;;;;30.62;42.03;98978.66;5052745;28;20226;-83
2021/06/29 07:57:06;;;;;;;6.50;5.90;;;;;;;30.40;42.42;98987.69;5037011;28;20217;-82
2021/06/29 07:59:33;;;;;;;6.25;5.75;;;;;;;30.54;41.98;98972.22;5053256;28;20526;-81
2021/06/29 08:02:00;;;;;;;6.57;5.97;;;;;;;30.43;41.55;98968.41;5053341;28;20245;-81
2021/06/29 08:04:27;;;;;;;6.30;5.80;;;;;;;30.68;41.23;98979.97;5054204;28;20233;-81
2021/06/29 08:06:54;;;;;;;6.75;5.95;;;;;;;30.36;41.91;98981.31;5053367;28;20608;-82
2021/06/29 08:09:21;;;;;;;6.32;5.93;;;;;;;30.53;41.48;98978.09;5020418;28;20536;-81
2021/06/29 08:12:04;;;;;;;6.38;5.85;;;;;;;30.49;41.74;98988.28;5053968;28;20222;-81
2021/06/29 08:14:31;;;;;;;6.47;5.85;;;;;;;30.45;41.73;98974.41;5020288;28;20613;-82
2021/06/29 08:16:58;;;;;;;6.30;5.70;;;;;;;30.55;41.34;98981.31;5053056;28;20230;-82
2021/06/29 08:19:25;;;;;;;5.97;5.57;;;;;;;30.55;41.57;98968.28;5036768;28;20371;-82
2021/06/29 08:21:51;;;;;;;6.07;5.68;;;;;;;30.67;41.06;98969.25;5053188;28;20528;-82
2021/06/29 08:24:18;;;;;;;6.07;5.65;;;;;;;30.70;40.86;98974.88;5020207;28;20325;-81
2021/06/29 08:26:45;;;;;;;6.60;6.00;;;;;;;30.63;41.26;98973.94;5053002;28;20244;-82
2021/06/29 08:29:12;;;;;;;7.30;5.80;;;;;;;30.59;41.49;98973.88;5020265;28;20319;-81
2021/06/29 08:31:39;;;;;;;5.95;5.45;;;;;;;30.81;41.29;98973.06;5036362;28;20226;-83
2021/06/29 08:34:06;;;;;;;6.20;5.68;;;;;;;30.94;40.71;98968.94;5036206;28;20222;-82
2021/06/29 08:36:34;;;;;;;6.70;6.15;;;;;;;31.02;40.32;98967.94;5052905;28;20649;-82
2021/06/29 08:39:01;;;;;;;6.47;5.88;;;;;;;31.08;40.11;98973.16;5036558;28;20230;-83
2021/06/29 08:41:28;;;;;;;6.82;6.22;;;;;;;31.07;40.52;98974.31;5052609;28;20218;-80
2021/06/29 08:43:54;;;;;;;6.35;5.95;;;;;;;31.40;40.06;98971.66;5052955;28;20233;-81
2021/06/29 08:46:21;;;;;;;6.43;5.93;;;;;;;31.34;39.81;98971.19;5052348;28;20229;-82
2021/06/29 08:48:48;;;;;;;6.28;5.78;;;;;;;31.49;39.59;98963.88;5054139;28;20225;-82
2021/06/29 08:51:16;;;;;;;6.30;5.80;;;;;;;31.64;38.86;98970.41;5052773;28;20233;-81
2021/06/29 08:53:42;;;;;;;6.63;6.13;;;;;;;31.22;39.74;98957.53;5016472;28;20232;-83
2021/06/29 08:56:15;;;;;;;6.68;6.18;;;;;;;31.45;39.28;98971.31;5046249;28;20232;-83
2021/06/29 08:58:43;;;;;;;6.18;5.65;;;;;;;31.21;40.47;98969.00;5053835;28;20249;-82
2021/06/29 09:01:12;;;;;;;6.15;5.57;;;;;;;31.55;39.59;98970.66;5036208;28;21789;-81
2021/06/29 09:03:42;;;;;;;6.57;6.07;;;;;;;31.47;39.76;98967.00;5037390;28;20225;-82
2021/06/29 09:06:10;;;;;;;7.50;7.00;;;;;;;31.63;38.44;98964.09;5036706;28;20320;-82
2021/06/29 09:08:39;;;;;;;7.07;6.50;;;;;;;31.56;38.55;98957.66;5040543;28;20228;-82
2021/06/29 09:11:11;;;;;;;7.65;7.15;;;;;;;31.59;38.24;98957.69;5040999;28;20225;-81
2021/06/29 09:13:39;;;;;;;7.40;6.75;;;;;;;31.79;38.67;98959.16;5024592;28;20237;-80
2021/06/29 09:16:07;;;;;;;6.88;6.38;;;;;;;31.81;38.56;98956.81;5040409;28;20260;-81
2021/06/29 09:18:37;;;;;;;7.15;6.65;;;;;;;31.69;37.98;98954.28;5024324;28;20231;-82
2021/06/29 09:21:06;;;;;;;7.28;6.75;;;;;;;31.91;38.27;98944.28;5041104;28;20571;-81
2021/06/29 09:23:35;;;;;;;7.47;6.88;;;;;;;31.94;37.61;98940.75;5057271;28;20320;-81
2021/06/29 09:26:16;;;;;;;7.28;6.72;;;;;;;31.92;37.63;98938.34;5056877;28;20232;-82
2021/06/29 09:28:57;;;;;;;6.55;6.15;;;;;;;31.95;38.31;98936.00;5023796;28;20248;-80
2021/06/29 09:31:27;;;;;;;6.57;6.07;;;;;;;31.95;38.32;98936.81;5040431;28;20236;-82
2021/06/29 09:33:56;;;;;;;6.75;6.20;;;;;;;32.25;38.04;98937.56;5056964;28;20700;-81
2021/06/29 09:36:28;;;;;;;6.50;6.10;;;;;;;32.16;37.80;98922.41;5040128;28;20233;-80
2021/06/29 09:38:57;;;;;;;6.70;6.10;;;;;;;32.38;37.65;98940.88;5056905;28;20279;-82
2021/06/29 09:41:28;;;;;;;6.65;6.15;;;;;;;32.58;37.17;98935.88;5040457;28;20252;-82
2021/06/29 09:44:01;;;;;;;7.80;6.35;;;;;;;32.44;37.83;98933.78;5056526;28;20291;-81
2021/06/29 09:46:28;;;;;;;6.82;6.22;;;;;;;32.83;37.63;98928.63;5023414;28;20507;-82
2021/06/29 09:48:58;;;;;;;7.10;6.10;;;;;;;32.65;36.76;98934.03;5056647;28;20233;-82
2021/06/29 09:51:45;;;;;;;6.43;5.95;;;;;;;32.84;37.03;98934.97;5056679;28;20231;-81
2021/06/29 09:54:13;;;;;;;7.03;6.32;;;;;;;32.73;37.36;98932.91;5046258;28;20234;-82
2021/06/29 09:56:44;;;;;;;7.45;6.43;;;;;;;32.70;37.41;98924.56;5054622;28;20300;-82
2021/06/29 09:59:21;;;;;;;6.85;6.25;;;;;;;32.85;36.79;98937.34;5056397;28;20236;-81
2021/06/29 10:01:49;;;;;;;6.80;6.30;;;;;;;33.24;36.28;98923.78;5039936;28;20225;-81
2021/06/29 10:04:16;;;;;;;6.75;6.20;;;;;;;33.19;36.74;98936.03;5039580;28;20240;-82
2021/06/29 10:06:44;;;;;;;6.45;5.97;;;;;;;33.09;36.85;98935.94;5039812;28;20229;-80
2021/06/29 10:09:13;;;;;;;7.45;6.68;;;;;;;33.33;36.33;98923.41;5056535;28;20229;-82
2021/06/29 10:11:40;;;;;;;7.20;6.70;;;;;;;33.30;36.28;98936.13;5039754;28;20317;-82
2021/06/29 10:14:12;;;;;;;6.68;6.18;;;;;;;33.15;36.14;98934.41;5055730;28;20578;-83
2021/06/29 10:16:46;;;;;;;7.20;6.60;;;;;;;32.84;37.13;98932.19;5056099;28;20221;-82
2021/06/29 10:19:17;;;;;;;8.13;7.00;;;;;;;32.87;36.79;98921.13;5039051;28;20217;-83
2021/06/29 10:21:49;;;;;;;6.95;6.28;;;;;;;33.00;37.16;98927.13;5040050;28;20252;-82
2021/06/29 10:24:20;;;;;;;6.97;6.47;;;;;;;32.98;37.38;98927.56;5055258;28;20260;-80
2021/06/29 10:26:50;;;;;;;7.05;6.55;;;;;;;32.85;37.05;98911.59;5055863;28;20230;-82
2021/06/29 10:29:18;;;;;;;7.63;7.00;;;;;;;32.86;37.00;98922.28;5055827;28;20320;-83
2021/06/29 10:31:53;;;;;;;7.28;6.78;;;;;;;33.00;36.34;98925.16;5056888;28;20689;-81
2021/06/29 10:34:21;;;;;;;6.90;6.40;;;;;;;33.04;35.92;98908.53;5055566;28;20267;-83
2021/06/29 10:36:50;;;;;;;7.90;7.20;;;;;;;32.95;36.07;98919.19;5055817;28;20252;-82
2021/06/29 10:39:19;;;;;;;7.18;6.68;;;;;;;32.78;36.57;98922.63;5039095;28;20321;-81
2021/06/29 10:41:53;;;;;;;7.22;6.68;;;;;;;32.57;36.10;98923.22;5022878;28;20591;-83
2021/06/29 10:44:21;;;;;;;8.45;7.25;;;;;;;32.52;36.19;98916.03;5038597;28;20319;-82
2021/06/29 10:46:53;;;;;;;7.63;7.13;;;;;;;32.34;36.49;98918.63;5038916;28;20257;-81
2021/06/29 10:49:28;;;;;;;7.13;6.60;;;;;;;32.14;37.31;98914.50;5055738;28;20320;-82
2021/06/29 10:51:56;;;;;;;7.63;6.90;;;;;;;32.15;37.84;98918.84;5052148;28;20226;-82
2021/06/29 10:54:39;;;;;;;6.90;6.32;;;;;;;32.52;37.25;98915.25;5046952;28;20299;-81
2021/06/29 10:57:08;;;;;;;7.15;6.43;;;;;;;32.90;36.57;98900.91;5054142;28;20218;-82
2021/06/29 10:59:35;;;;;;;6.60;6.20;;;;;;;32.75;36.11;98913.91;5021791;28;20229;-80
2021/06/29 11:02:02;;;;;;;6.93;6.32;;;;;;;32.68;35.68;98901.94;5038114;28;20222;-83
2021/06/29 11:04:54;;;;;;;6.72;6.22;;;;;;;32.53;35.90;98916.81;5038742;28;20584;-81
2021/06/29 11:07:27;;;;;;;6.10;5.60;;;;;;;32.53;36.21;98909.31;5055371;28;20252;-82
2021/06/29 11:09:59;;;;;;;5.70;5.32;;;;;;;32.49;35.97;98907.69;5055168;28;20694;-80
2021/06/29 11:12:31;;;;;;;5.85;5.30;;;;;;;32.57;36.01;98895.50;5037761;28;20237;-82
2021/06/29 11:15:00;;;;;;;5.72;5.32;;;;;;;32.70;36.04;98892.06;5038133;28;20229;-82
2021/06/29 11:17:52;;;;;;;5.35;4.93;;;;;;;32.65;34.93;98891.63;5054546;28;20720;-82
2021/06/29 11:20:25;;;;;;;5.05;4.72;;;;;;;32.75;35.51;98883.41;5054496;28;20320;-81
2021/06/29 11:22:59;;;;;;;6.00;5.53;;;;;;;32.76;35.69;98898.84;5038302;28;20233;-82
2021/06/29 11:25:34;;;;;;;5.32;4.90;;;;;;;32.59;36.45;98887.56;5055168;28;20229;-82
2021/06/29 11:28:34;;;;;;;4.95;4.50;;;;;;;32.73;35.13;98882.97;5043016;28;20312;-83
2021/06/29 11:31:04;;;;;;;5.40;4.90;;;;;;;32.69;35.77;98900.75;5016704;28;20241;-82
2021/06/29 11:33:40;;;;;;;5.30;4.97;;;;;;;32.72;35.09;98894.44;5034614;28;20235;-82
2021/06/29 11:36:29;;;;;;;5.38;4.88;;;;;;;32.91;35.30;98896.16;5035366;28;20236;-80
2021/06/29 11:39:19;;;;;;;4.80;4.50;;;;;;;33.10;34.27;98890.34;5018076;28;20226;-82